createdAt,value
2018-12-18T00:02:06.789Z,6.60
2018-12-18T00:04:34.595Z,5.70
2018-12-18T00:07:02.376Z,5.97
2018-12-18T00:09:30.047Z,6.00
2018-12-18T00:11:59.374Z,5.80
2018-12-18T00:14:27.505Z,5.87
2018-12-18T00:16:55.262Z,6.10
2018-12-18T00:19:23.022Z,5.80
2018-12-18T00:21:50.788Z,5.70
2018-12-18T00:24:18.684Z,5.23
2018-12-18T00:26:46.749Z,6.30
2018-12-18T00:29:14.162Z,6.27
2018-12-18T00:31:41.678Z,5.13
2018-12-18T00:34:09.419Z,6.00
2018-12-18T00:36:37.183Z,5.40
2018-12-18T00:39:06.304Z,5.97
2018-12-18T00:41:34.140Z,5.87
2018-12-18T00:44:01.617Z,6.60
2018-12-18T00:46:29.343Z,5.93
2018-12-18T00:48:57.109Z,5.60
2018-12-18T00:51:24.776Z,6.03
2018-12-18T00:53:52.336Z,5.70
2018-12-18T00:56:20.005Z,5.40
2018-12-18T00:58:47.412Z,5.40
2018-12-18T01:01:15.040Z,6.27
2018-12-18T01:03:42.639Z,6.03
2018-12-18T01:06:10.530Z,5.90
2018-12-18T01:08:38.208Z,5.57
2018-12-18T01:11:06.160Z,5.60
2018-12-18T01:13:33.818Z,5.70
2018-12-18T01:16:01.591Z,5.67
2018-12-18T01:18:29.468Z,5.33
2018-12-18T01:20:57.222Z,5.47
2018-12-18T01:23:24.613Z,5.63
2018-12-18T01:25:52.400Z,5.73
2018-12-18T01:28:20.029Z,5.20
2018-12-18T01:30:47.780Z,4.93
2018-12-18T01:33:15.230Z,4.93
2018-12-18T01:35:42.993Z,5.33
2018-12-18T01:38:10.653Z,5.33
2018-12-18T01:40:38.422Z,4.93
2018-12-18T01:43:06.159Z,5.27
2018-12-18T01:45:33.741Z,4.57
2018-12-18T01:48:01.483Z,5.07
2018-12-18T01:50:29.170Z,4.40
2018-12-18T01:52:56.727Z,5.40
2018-12-18T01:55:24.412Z,5.17
2018-12-18T01:57:52.048Z,4.80
2018-12-18T02:00:19.815Z,4.70
2018-12-18T02:02:47.393Z,4.77
2018-12-18T02:05:15.064Z,4.97
2018-12-18T02:07:42.708Z,4.80
2018-12-18T02:10:10.258Z,4.40
2018-12-18T02:12:37.962Z,5.00
2018-12-18T02:15:05.758Z,4.70
2018-12-18T02:17:33.251Z,4.70
2018-12-18T02:20:01.094Z,5.03
2018-12-18T02:22:28.643Z,5.07
2018-12-18T02:24:56.421Z,4.30
2018-12-18T02:27:23.995Z,4.97
2018-12-18T02:29:51.497Z,5.17
2018-12-18T02:32:19.216Z,5.07
2018-12-18T02:34:46.880Z,4.80
2018-12-18T02:37:14.435Z,4.60
2018-12-18T02:39:42.198Z,4.80
2018-12-18T02:42:09.742Z,4.67
2018-12-18T02:44:37.539Z,4.50
2018-12-18T02:47:05.085Z,4.40
2018-12-18T02:49:32.748Z,3.87
2018-12-18T02:52:00.420Z,4.53
2018-12-18T02:54:28.000Z,4.50
2018-12-18T02:56:55.728Z,4.53
2018-12-18T02:59:23.315Z,4.43
2018-12-18T03:01:50.951Z,4.60
2018-12-18T03:04:21.750Z,4.53
2018-12-18T03:06:48.501Z,4.60
2018-12-18T03:09:16.185Z,4.30
2018-12-18T03:11:43.834Z,4.10
2018-12-18T03:14:11.724Z,3.80
2018-12-18T03:16:39.184Z,4.50
2018-12-18T03:19:06.916Z,4.00
2018-12-18T03:21:34.527Z,4.50
2018-12-18T03:24:02.358Z,5.07
2018-12-18T03:26:30.432Z,4.23
2018-12-18T03:28:58.149Z,4.20
2018-12-18T03:31:26.819Z,4.33
2018-12-18T03:33:54.425Z,4.40
2018-12-18T03:36:22.403Z,4.20
2018-12-18T03:38:50.069Z,4.03
2018-12-18T03:41:17.744Z,4.47
2018-12-18T03:43:45.289Z,3.90
2018-12-18T03:46:13.367Z,4.07
2018-12-18T03:48:40.861Z,4.00
2018-12-18T03:51:08.369Z,3.80
2018-12-18T03:53:36.335Z,4.77
2018-12-18T03:56:03.895Z,3.50
2018-12-18T03:58:32.037Z,3.90
2018-12-18T04:01:03.919Z,4.20
2018-12-18T04:03:31.804Z,3.83
2018-12-18T04:05:59.757Z,4.63
2018-12-18T04:08:27.621Z,4.17
2018-12-18T04:10:55.385Z,4.37
2018-12-18T04:13:23.258Z,4.13
2018-12-18T04:15:50.857Z,4.57
2018-12-18T04:18:18.817Z,5.30
2018-12-18T04:20:46.608Z,6.47
2018-12-18T04:23:14.422Z,7.30
2018-12-18T04:25:42.567Z,7.07
2018-12-18T04:28:10.200Z,7.33
2018-12-18T04:30:38.227Z,9.90
2018-12-18T04:33:05.778Z,10.60
2018-12-18T04:35:33.755Z,9.70
2018-12-18T04:38:01.371Z,9.47
2018-12-18T04:40:29.388Z,9.07
2018-12-18T04:42:57.374Z,8.47
2018-12-18T04:45:25.523Z,9.30
2018-12-18T04:47:53.093Z,9.00
2018-12-18T04:50:21.074Z,8.57
2018-12-18T04:52:48.536Z,8.50
2018-12-18T04:55:16.393Z,8.30
2018-12-18T04:57:44.049Z,7.90
2018-12-18T05:00:12.098Z,6.97
2018-12-18T05:02:39.482Z,6.73
2018-12-18T05:05:07.339Z,7.03
2018-12-18T05:07:34.900Z,6.73
2018-12-18T05:10:02.860Z,5.37
2018-12-18T05:12:30.523Z,6.50
2018-12-18T05:14:58.194Z,6.53
2018-12-18T05:17:26.162Z,5.80
2018-12-18T05:19:53.802Z,5.77
2018-12-18T05:22:21.588Z,6.50
2018-12-18T05:24:49.754Z,6.60
2018-12-18T05:27:17.792Z,6.43
2018-12-18T05:29:45.498Z,5.67
2018-12-18T05:32:13.260Z,5.43
2018-12-18T05:34:41.029Z,5.17
2018-12-18T05:37:08.861Z,5.20
2018-12-18T05:39:36.661Z,5.50
2018-12-18T05:42:04.411Z,5.27
2018-12-18T05:44:32.271Z,5.60
2018-12-18T05:46:59.851Z,5.23
2018-12-18T05:49:31.115Z,5.40
2018-12-18T05:51:58.756Z,5.07
2018-12-18T05:54:26.429Z,5.17
2018-12-18T05:56:54.053Z,5.30
2018-12-18T05:59:21.825Z,5.43
2018-12-18T06:01:49.233Z,4.50
2018-12-18T06:04:16.741Z,4.90
2018-12-18T06:06:44.719Z,5.03
2018-12-18T06:09:12.379Z,4.67
2018-12-18T06:11:40.321Z,4.70
2018-12-18T06:14:07.807Z,4.63
2018-12-18T06:16:35.754Z,4.70
2018-12-18T06:19:03.451Z,4.93
2018-12-18T06:21:31.129Z,4.70
2018-12-18T06:23:59.287Z,5.07
2018-12-18T06:26:27.113Z,4.67
2018-12-18T06:28:54.541Z,4.70
2018-12-18T06:31:22.052Z,5.37
2018-12-18T06:33:49.834Z,4.80
2018-12-18T06:36:17.377Z,4.50
2018-12-18T06:38:45.315Z,4.13
2018-12-18T06:41:13.127Z,4.53
2018-12-18T06:43:40.870Z,4.03
2018-12-18T06:46:08.857Z,4.37
2018-12-18T06:48:36.341Z,4.10
2018-12-18T06:51:03.813Z,3.97
2018-12-18T06:53:31.806Z,4.30
2018-12-18T06:55:59.485Z,4.50
2018-12-18T06:58:27.526Z,3.87
2018-12-18T07:00:55.424Z,3.93
2018-12-18T07:03:23.161Z,4.10
2018-12-18T07:05:50.825Z,4.20
2018-12-18T07:08:18.715Z,4.27
2018-12-18T07:10:46.769Z,4.17
2018-12-18T07:13:14.424Z,4.03
2018-12-18T07:15:42.399Z,3.93
2018-12-18T07:18:10.261Z,4.20
2018-12-18T07:20:37.917Z,4.10
2018-12-18T07:23:05.687Z,4.10
2018-12-18T07:25:33.347Z,3.97
2018-12-18T07:28:01.009Z,3.87
2018-12-18T07:30:28.621Z,3.37
2018-12-18T07:32:56.311Z,3.90
2018-12-18T07:35:23.899Z,3.50
2018-12-18T07:37:51.860Z,3.83
2018-12-18T07:40:19.700Z,3.90
2018-12-18T07:42:47.365Z,4.07
2018-12-18T07:45:15.044Z,3.83
2018-12-18T07:47:42.768Z,3.77
2018-12-18T07:50:10.669Z,3.87
2018-12-18T07:52:38.654Z,3.77
2018-12-18T07:55:06.058Z,3.57
2018-12-18T07:57:33.473Z,3.47
2018-12-18T08:00:01.518Z,3.40
2018-12-18T08:02:29.194Z,3.70
2018-12-18T08:04:56.944Z,3.60
2018-12-18T08:07:24.509Z,3.40
2018-12-18T08:09:52.287Z,3.90
2018-12-18T08:12:21.639Z,4.00
2018-12-18T08:14:49.445Z,3.10
2018-12-18T08:17:16.895Z,3.70
2018-12-18T08:19:44.563Z,3.70
2018-12-18T08:22:12.902Z,3.13
2018-12-18T08:24:40.607Z,3.60
2018-12-18T08:27:08.214Z,3.10
2018-12-18T08:29:35.927Z,3.40
2018-12-18T08:32:03.435Z,3.50
2018-12-18T08:34:31.050Z,3.03
2018-12-18T08:36:58.763Z,3.10
2018-12-18T08:39:26.482Z,3.40
2018-12-18T08:41:54.002Z,3.10
2018-12-18T08:44:21.696Z,3.10
2018-12-18T08:46:49.450Z,3.40
2018-12-18T08:49:17.122Z,3.00
2018-12-18T08:51:44.575Z,3.43
2018-12-18T08:54:12.339Z,3.33
2018-12-18T08:56:39.803Z,3.57
2018-12-18T08:59:07.550Z,3.90
2018-12-18T09:01:35.229Z,3.37
2018-12-18T09:04:02.873Z,3.33
2018-12-18T09:06:30.350Z,2.77
2018-12-18T09:08:58.749Z,3.00
2018-12-18T09:11:26.567Z,3.50
2018-12-18T09:13:54.079Z,3.23
2018-12-18T09:16:27.427Z,3.20
2018-12-18T09:18:54.991Z,3.20
2018-12-18T09:21:22.759Z,3.17
2018-12-18T09:23:50.427Z,3.00
2018-12-18T09:26:18.531Z,3.17
2018-12-18T09:28:46.265Z,2.90
2018-12-18T09:31:14.009Z,3.10
2018-12-18T09:33:41.689Z,3.20
2018-12-18T09:36:09.229Z,3.23
2018-12-18T09:38:42.452Z,3.40
2018-12-18T09:41:15.614Z,3.20
2018-12-18T09:43:49.031Z,3.80
2018-12-18T09:46:16.679Z,3.10
2018-12-18T09:48:44.339Z,3.10
2018-12-18T09:51:11.975Z,3.43
2018-12-18T09:53:39.508Z,3.17
2018-12-18T09:56:07.325Z,3.07
2018-12-18T09:58:34.787Z,3.53
2018-12-18T10:01:02.555Z,3.40
2018-12-18T10:03:33.561Z,3.10
2018-12-18T10:06:00.020Z,3.00
2018-12-18T10:08:27.885Z,3.17
2018-12-18T10:10:55.301Z,3.50
2018-12-18T10:13:23.105Z,2.80
2018-12-18T10:15:50.593Z,2.80
2018-12-18T10:18:18.328Z,3.00
2018-12-18T10:20:46.185Z,2.97
2018-12-18T10:23:13.947Z,3.10
2018-12-18T10:25:41.317Z,3.17
2018-12-18T10:28:08.957Z,2.97
2018-12-18T10:30:36.549Z,3.00
2018-12-18T10:33:04.289Z,3.13
2018-12-18T10:35:36.510Z,2.97
2018-12-18T10:38:01.971Z,3.53
2018-12-18T10:40:29.836Z,3.10
2018-12-18T10:42:57.503Z,3.47
2018-12-18T10:45:25.056Z,2.87
2018-12-18T10:47:52.783Z,3.23
2018-12-18T10:50:20.477Z,3.53
2018-12-18T10:52:48.050Z,3.10
2018-12-18T10:55:15.709Z,2.87
2018-12-18T10:57:43.981Z,3.10
2018-12-18T11:00:17.279Z,2.77
2018-12-18T11:02:44.973Z,2.83
2018-12-18T11:05:12.519Z,2.60
2018-12-18T11:07:40.167Z,3.00
2018-12-18T11:10:07.823Z,3.40
2018-12-18T11:12:38.868Z,2.90
2018-12-18T11:15:06.926Z,3.37
2018-12-18T11:17:34.579Z,2.83
2018-12-18T11:20:02.247Z,3.20
2018-12-18T11:22:29.940Z,3.00
2018-12-18T11:24:57.669Z,3.07
2018-12-18T11:27:25.267Z,2.73
2018-12-18T11:29:53.046Z,2.63
2018-12-18T11:32:20.758Z,2.83
2018-12-18T11:34:48.435Z,3.10
2018-12-18T11:37:16.595Z,2.83
2018-12-18T11:39:44.379Z,2.83
2018-12-18T11:42:12.066Z,2.73
2018-12-18T11:44:39.700Z,2.73
2018-12-18T11:47:07.765Z,2.50
2018-12-18T11:49:35.551Z,2.70
2018-12-18T11:52:03.103Z,2.87
2018-12-18T11:54:30.857Z,3.00
2018-12-18T11:56:58.521Z,2.77
2018-12-18T11:59:25.988Z,2.63
2018-12-18T12:01:53.723Z,2.73
2018-12-18T12:04:21.473Z,3.03
2018-12-18T12:06:49.055Z,3.00
2018-12-18T12:09:17.205Z,3.17
2018-12-18T12:11:44.903Z,2.90
2018-12-18T12:14:12.578Z,2.87
2018-12-18T12:16:40.215Z,2.43
2018-12-18T12:19:07.982Z,2.87
2018-12-18T12:21:35.653Z,2.63
2018-12-18T12:24:03.207Z,2.63
2018-12-18T12:26:33.824Z,2.50
2018-12-18T12:29:01.482Z,2.47
2018-12-18T12:31:29.189Z,3.00
2018-12-18T12:33:57.425Z,2.50
2018-12-18T12:36:29.631Z,2.50
2018-12-18T12:38:55.056Z,2.80
2018-12-18T12:41:22.876Z,2.47
2018-12-18T12:43:50.626Z,3.07
2018-12-18T12:46:18.302Z,2.53
2018-12-18T12:48:51.322Z,3.00
2018-12-18T12:51:18.950Z,2.83
2018-12-18T12:53:46.584Z,2.77
2018-12-18T12:56:14.354Z,2.90
2018-12-18T12:58:42.140Z,2.93
2018-12-18T13:01:09.674Z,2.57
2018-12-18T13:03:37.092Z,2.93
2018-12-18T13:06:04.820Z,2.87
2018-12-18T13:08:32.461Z,2.60
2018-12-18T13:11:00.116Z,2.40
2018-12-18T13:13:27.718Z,2.40
2018-12-18T13:15:55.420Z,2.90
2018-12-18T13:18:23.008Z,2.50
2018-12-18T13:20:50.663Z,2.87
2018-12-18T13:23:18.333Z,2.70
2018-12-18T13:25:45.977Z,2.47
2018-12-18T13:28:13.465Z,2.83
2018-12-18T13:30:41.121Z,2.60
2018-12-18T13:33:08.877Z,2.83
2018-12-18T13:35:36.307Z,2.70
2018-12-18T13:38:04.036Z,3.07
2018-12-18T13:40:32.351Z,2.90
2018-12-18T13:43:00.066Z,3.23
2018-12-18T13:45:27.701Z,2.80
2018-12-18T13:47:55.561Z,3.13
2018-12-18T13:50:23.615Z,2.63
2018-12-18T13:52:51.295Z,3.03
2018-12-18T13:55:18.939Z,3.00
2018-12-18T13:57:46.503Z,2.80
2018-12-18T14:00:14.179Z,2.90
2018-12-18T14:02:41.866Z,3.10
2018-12-18T14:05:09.377Z,3.17
2018-12-18T14:07:36.939Z,3.03
2018-12-18T14:10:06.137Z,3.67
2018-12-18T14:12:33.743Z,2.80
2018-12-18T14:15:01.356Z,3.20
2018-12-18T14:17:29.067Z,3.30
2018-12-18T14:19:56.893Z,3.30
2018-12-18T14:22:25.089Z,3.20
2018-12-18T14:24:52.851Z,2.80
2018-12-18T14:27:20.560Z,2.90
2018-12-18T14:29:48.083Z,3.47
2018-12-18T14:32:15.607Z,3.70
2018-12-18T14:34:43.367Z,3.20
2018-12-18T14:37:10.836Z,3.20
2018-12-18T14:39:38.541Z,3.27
2018-12-18T14:42:06.099Z,3.10
2018-12-18T14:44:33.711Z,3.00
2018-12-18T14:47:01.281Z,3.43
2018-12-18T14:49:29.012Z,3.40
2018-12-18T14:51:56.540Z,3.50
2018-12-18T14:54:24.337Z,3.20
2018-12-18T14:56:51.817Z,3.00
2018-12-18T14:59:20.087Z,2.80
2018-12-18T15:01:47.946Z,3.23
2018-12-18T15:04:15.545Z,2.97
2018-12-18T15:06:43.228Z,3.03
2018-12-18T15:09:10.841Z,3.40
2018-12-18T15:11:38.440Z,2.73
2018-12-18T15:14:06.069Z,3.13
2018-12-18T15:16:33.722Z,3.20
2018-12-18T15:19:01.156Z,3.23
2018-12-18T15:21:28.640Z,3.13
2018-12-18T15:23:56.402Z,3.10
2018-12-18T15:26:23.817Z,2.80
2018-12-18T15:28:51.511Z,3.33
2018-12-18T15:31:19.172Z,3.23
2018-12-18T15:33:47.160Z,3.20
2018-12-18T15:36:14.823Z,2.90
2018-12-18T15:38:42.790Z,3.70
2018-12-18T15:41:10.252Z,3.20
2018-12-18T15:43:38.096Z,3.33
2018-12-18T15:46:05.758Z,3.33
2018-12-18T15:48:33.728Z,2.90
2018-12-18T15:51:01.233Z,3.27
2018-12-18T15:53:29.256Z,2.80
2018-12-18T15:55:57.330Z,3.50
2018-12-18T15:58:25.402Z,3.50
2018-12-18T16:00:52.986Z,3.50
2018-12-18T16:03:20.545Z,3.13
2018-12-18T16:05:48.230Z,3.40
2018-12-18T16:08:15.748Z,3.40
2018-12-18T16:10:43.728Z,3.13
2018-12-18T16:13:11.177Z,3.10
2018-12-18T16:15:39.127Z,3.30
2018-12-18T16:18:06.569Z,3.23
2018-12-18T16:20:35.180Z,3.20
2018-12-18T16:23:03.039Z,3.37
2018-12-18T16:25:30.922Z,2.83
2018-12-18T16:27:58.480Z,3.10
2018-12-18T16:30:26.329Z,3.37
2018-12-18T16:32:53.809Z,3.40
2018-12-18T16:35:21.658Z,3.10
2018-12-18T16:37:49.246Z,2.93
2018-12-18T16:40:17.141Z,3.23
2018-12-18T16:42:45.153Z,3.00
2018-12-18T16:45:12.745Z,3.17
2018-12-18T16:47:40.406Z,2.97
2018-12-18T16:50:08.067Z,3.47
2018-12-18T16:52:35.890Z,3.03
2018-12-18T16:55:04.598Z,3.27
2018-12-18T16:57:32.057Z,3.60
2018-12-18T16:59:59.963Z,3.40
2018-12-18T17:02:27.753Z,2.97
2018-12-18T17:04:55.348Z,3.00
2018-12-18T17:07:29.450Z,3.33
2018-12-18T17:09:52.896Z,3.83
2018-12-18T17:12:20.814Z,5.10
2018-12-18T17:14:48.243Z,4.20
2018-12-18T17:17:16.446Z,3.63
2018-12-18T17:19:44.003Z,4.30
2018-12-18T17:22:12.311Z,4.47
2018-12-18T17:24:39.866Z,4.23
2018-12-18T17:27:07.887Z,4.00
2018-12-18T17:29:35.520Z,4.53
2018-12-18T17:32:03.441Z,4.07
2018-12-18T17:34:31.604Z,4.00
2018-12-18T17:36:59.250Z,3.60
2018-12-18T17:39:27.016Z,4.50
2018-12-18T17:41:55.103Z,3.67
2018-12-18T17:44:22.557Z,4.20
2018-12-18T17:46:50.588Z,4.10
2018-12-18T17:49:18.449Z,4.20
2018-12-18T17:51:46.040Z,4.03
2018-12-18T17:54:13.811Z,4.17
2018-12-18T17:56:41.403Z,3.87
2018-12-18T17:59:09.352Z,4.37
2018-12-18T18:01:37.001Z,4.00
2018-12-18T18:04:04.598Z,4.20
2018-12-18T18:06:32.515Z,4.77
2018-12-18T18:08:59.959Z,3.90
2018-12-18T18:11:27.896Z,3.93
2018-12-18T18:13:55.560Z,4.90
2018-12-18T18:16:23.384Z,3.70
2018-12-18T18:18:51.089Z,3.73
2018-12-18T18:21:19.050Z,4.20
2018-12-18T18:23:47.123Z,3.73
2018-12-18T18:26:16.415Z,4.17
2018-12-18T18:28:44.435Z,4.03
2018-12-18T18:31:11.996Z,4.03
2018-12-18T18:33:40.102Z,3.93
2018-12-18T18:36:07.636Z,3.63
2018-12-18T18:38:35.598Z,4.03
2018-12-18T18:41:03.602Z,3.93
2018-12-18T18:43:31.910Z,3.80
2018-12-18T18:45:59.958Z,3.63
2018-12-18T18:48:27.632Z,3.70
2018-12-18T18:50:55.218Z,3.80
2018-12-18T18:53:23.132Z,3.60
2018-12-18T18:55:50.568Z,3.93
2018-12-18T18:58:19.357Z,3.70
2018-12-18T19:00:47.288Z,3.90
2018-12-18T19:03:14.964Z,3.90
2018-12-18T19:05:42.866Z,4.07
2018-12-18T19:08:11.820Z,4.10
2018-12-18T19:10:39.875Z,4.00
2018-12-18T19:13:07.940Z,3.77
2018-12-18T19:15:36.201Z,3.67
2018-12-18T19:18:04.126Z,3.67
2018-12-18T19:23:05.343Z,3.97
2018-12-18T19:25:34.152Z,4.10
2018-12-18T19:28:01.940Z,3.63
2018-12-18T19:30:31.773Z,3.70
2018-12-18T19:33:00.628Z,3.90
2018-12-18T19:35:28.344Z,3.73
2018-12-18T19:38:03.184Z,3.80
2018-12-18T19:40:29.256Z,4.03
2018-12-18T19:42:56.847Z,4.10
2018-12-18T19:45:24.828Z,3.63
2018-12-18T19:47:53.377Z,4.47
2018-12-18T19:50:21.861Z,3.60
2018-12-18T19:52:49.707Z,3.90
2018-12-18T19:55:18.670Z,3.33
2018-12-18T19:57:46.514Z,3.73
2018-12-18T20:00:14.125Z,3.70
2018-12-18T20:02:41.984Z,3.77
2018-12-18T20:05:11.002Z,4.03
2018-12-18T20:07:38.876Z,3.90
2018-12-18T20:10:07.131Z,4.13
2018-12-18T20:12:35.971Z,3.80
2018-12-18T20:15:05.598Z,3.60
2018-12-18T20:17:46.261Z,3.50
2018-12-18T20:20:14.600Z,4.37
2018-12-18T20:22:42.719Z,3.83
2018-12-18T20:25:10.421Z,3.80
2018-12-18T20:27:39.104Z,4.07
2018-12-18T20:30:07.563Z,3.90
2018-12-18T20:32:36.801Z,3.73
2018-12-18T20:35:04.593Z,4.00
2018-12-18T20:37:33.572Z,3.97
2018-12-18T20:40:02.302Z,3.83
2018-12-18T20:42:29.994Z,3.90
2018-12-18T20:44:58.826Z,3.67
2018-12-18T20:47:26.694Z,3.73
2018-12-18T20:49:54.791Z,4.30
2018-12-18T20:52:23.479Z,3.87
2018-12-18T20:54:51.248Z,3.80
2018-12-18T20:57:20.478Z,3.90
2018-12-18T20:59:50.620Z,3.43
2018-12-18T21:02:18.254Z,3.80
2018-12-18T21:04:46.131Z,3.80
2018-12-18T21:07:14.151Z,4.00
2018-12-18T21:09:44.151Z,4.30
2018-12-18T21:12:11.845Z,4.27
2018-12-18T21:14:41.160Z,3.93
2018-12-18T21:17:09.971Z,4.20
2018-12-18T21:19:38.645Z,3.77
2018-12-18T21:22:09.156Z,5.20
2018-12-18T21:24:38.413Z,5.87
2018-12-18T21:27:06.368Z,4.87
2018-12-18T21:29:34.797Z,5.07
2018-12-18T21:32:03.045Z,4.90
2018-12-18T21:34:31.690Z,5.80
2018-12-18T21:36:59.397Z,6.13
2018-12-18T21:39:28.355Z,5.50
2018-12-18T21:41:56.086Z,5.30
2018-12-18T21:44:25.321Z,5.60
2018-12-18T21:46:53.422Z,5.97
2018-12-18T21:49:21.897Z,5.43
2018-12-18T21:51:50.429Z,6.53
2018-12-18T21:54:18.202Z,5.07
2018-12-18T21:56:45.822Z,5.20
2018-12-18T21:59:13.428Z,6.03
2018-12-18T22:01:41.058Z,5.23
2018-12-18T22:04:09.171Z,5.43
2018-12-18T22:06:36.929Z,5.10
2018-12-18T22:09:06.470Z,5.37
2018-12-18T22:11:34.049Z,4.90
2018-12-18T22:14:01.697Z,5.13
2018-12-18T22:16:29.530Z,5.20
2018-12-18T22:18:57.719Z,5.10
2018-12-18T22:21:25.391Z,5.90
2018-12-18T22:23:53.052Z,5.70
2018-12-18T22:26:20.736Z,5.70
2018-12-18T22:28:48.348Z,5.60
2018-12-18T22:31:15.982Z,6.17
2018-12-18T22:33:43.735Z,5.97
2018-12-18T22:36:11.569Z,5.87
2018-12-18T22:38:43.628Z,5.80
2018-12-18T22:41:09.047Z,5.90
2018-12-18T22:43:36.931Z,5.00
2018-12-18T22:46:04.668Z,5.30
2018-12-18T22:48:32.350Z,5.13
2018-12-18T22:51:00.006Z,4.90
2018-12-18T22:53:27.660Z,5.50
2018-12-18T22:55:55.440Z,4.90
2018-12-18T22:58:23.118Z,5.30
2018-12-18T23:00:53.198Z,5.30
2018-12-18T23:03:20.942Z,4.97
2018-12-18T23:05:48.632Z,5.30
2018-12-18T23:08:16.298Z,5.97
2018-12-18T23:10:43.962Z,4.70
2018-12-18T23:13:13.509Z,4.83
2018-12-18T23:15:41.552Z,4.50
2018-12-18T23:18:09.195Z,4.50
2018-12-18T23:20:36.776Z,4.97
2018-12-18T23:23:04.518Z,4.50
2018-12-18T23:25:32.383Z,4.60
2018-12-18T23:28:00.046Z,4.93
2018-12-18T23:30:27.708Z,4.90
2018-12-18T23:32:55.254Z,5.07
2018-12-18T23:35:23.031Z,4.30
2018-12-18T23:37:50.696Z,4.20
2018-12-18T23:40:18.267Z,4.50
2018-12-18T23:42:45.918Z,4.80
2018-12-18T23:45:13.664Z,4.40
2018-12-18T23:47:41.351Z,4.40
2018-12-18T23:50:08.983Z,4.33
2018-12-18T23:52:36.761Z,4.70
2018-12-18T23:55:04.885Z,4.50
2018-12-18T23:57:32.576Z,4.77
